Time;durP1;ratioP1;P1;durP2;ratioP2;P2;SDS_P1;SDS_P2;PMS_P1;PMS_P2;Temp;Humidity;BMP_temperature;BMP_pressure;BME280_temperature;BME280_humidity;BME280_pressure;Samples;Min_cycle;Max_cycle;Signal;HPM_P1;HPM_P2
2022/04/17 00:04:01;;;;;;;11.05;9.95;;;;;;;;;;740561;78;26196;-70
2022/04/17 00:05:06;;;;;;;11.50;10.40;;;;;;;;;;740045;78;26264;-71
2022/04/17 00:06:14;;;;;;;12.10;10.25;;;;;;;;;;730028;79;26273;-72
2022/04/17 00:07:24;;;;;;;12.03;10.82;;;;;;;;;;738927;79;26744;-72
2022/04/17 00:08:28;;;;;;;12.30;11.03;;;;;;;;;;739033;80;26364;-72
2022/04/17 00:13:22;;;;;;;11.00;9.88;;;;;;;;;;761250;77;26274;-72
2022/04/17 00:14:25;;;;;;;12.10;10.90;;;;;;;;;;750228;78;26323;-71
2022/04/17 00:15:29;;;;;;;10.78;9.85;;;;;;;;;;748296;78;26266;-72
2022/04/17 00:16:32;;;;;;;12.18;11.00;;;;;;;;;;761417;78;26333;-74
2022/04/17 00:17:37;;;;;;;12.15;10.95;;;;;;;;;;761432;78;26243;-71
2022/04/17 00:18:40;;;;;;;12.07;10.88;;;;;;;;;;761417;78;26722;-71
2022/04/17 00:23:11;;;;;;;10.43;9.43;;;;;;;;;;787204;75;26120;-71
2022/04/17 00:24:15;;;;;;;12.28;11.03;;;;;;;;;;787024;75;26303;-71
2022/04/17 00:25:18;;;;;;;12.05;10.78;;;;;;;;;;786843;75;26234;-71
2022/04/17 00:26:22;;;;;;;11.73;10.53;;;;;;;;;;786774;75;26235;-72
2022/04/17 00:27:26;;;;;;;13.03;11.73;;;;;;;;;;786729;75;26656;-71
2022/04/17 00:28:29;;;;;;;12.00;10.80;;;;;;;;;;786762;75;26235;-72
2022/04/17 00:32:02;;;;;;;12.43;11.12;;;;;;;;;;786999;75;26152;-71
2022/04/17 00:33:06;;;;;;;11.50;10.30;;;;;;;;;;773744;76;26279;-71
2022/04/17 00:34:10;;;;;;;11.73;10.63;;;;;;;;;;773043;76;26302;-72
2022/04/17 00:35:13;;;;;;;12.88;11.50;;;;;;;;;;773720;76;26767;-71
2022/04/17 00:36:18;;;;;;;12.93;11.10;;;;;;;;;;773675;76;26247;-71
2022/04/17 00:37:22;;;;;;;11.48;10.28;;;;;;;;;;773705;76;26314;-72
2022/04/17 00:38:27;;;;;;;13.45;11.33;;;;;;;;;;770807;76;26244;-71
2022/04/17 00:43:33;;;;;;;13.35;10.72;;;;;;;;;;755755;78;26321;-71
2022/04/17 00:44:35;;;;;;;12.13;10.85;;;;;;;;;;755802;78;26777;-70
2022/04/17 00:45:38;;;;;;;13.40;11.55;;;;;;;;;;756134;78;26724;-72
2022/04/17 00:46:41;;;;;;;12.45;11.15;;;;;;;;;;756070;78;26338;-71
2022/04/17 00:56:27;;;;;;;11.08;9.98;;;;;;;;;;782159;76;26163;-72
2022/04/17 00:57:31;;;;;;;11.90;10.60;;;;;;;;;;782077;76;26696;-71
2022/04/17 00:58:33;;;;;;;10.72;9.73;;;;;;;;;;764036;77;26260;-72
2022/04/17 01:10:45;;;;;;;11.45;10.28;;;;;;;;;;796083;74;26242;-73
2022/04/17 01:11:51;;;;;;;11.30;10.20;;;;;;;;;;795214;74;26248;-70
2022/04/17 01:12:54;;;;;;;10.53;9.53;;;;;;;;;;794914;74;26404;-71
2022/04/17 01:13:59;;;;;;;10.85;9.75;;;;;;;;;;794883;74;26244;-71
2022/04/17 01:15:03;;;;;;;11.90;10.45;;;;;;;;;;795025;74;26314;-71
2022/04/17 01:16:06;;;;;;;11.68;10.60;;;;;;;;;;795091;74;26677;-72
2022/04/17 01:17:10;;;;;;;11.43;9.80;;;;;;;;;;795146;74;26677;-71
2022/04/17 01:18:12;;;;;;;10.95;9.85;;;;;;;;;;794968;74;26264;-72
2022/04/17 01:21:09;;;;;;;10.55;9.50;;;;;;;;;;760116;77;26308;-72
2022/04/17 01:22:13;;;;;;;11.45;10.25;;;;;;;;;;747344;79;26267;-72
2022/04/17 01:27:14;;;;;;;10.23;9.23;;;;;;;;;;750989;79;26266;-72
2022/04/17 01:28:17;;;;;;;10.43;9.43;;;;;;;;;;755431;77;26255;-73
2022/04/17 01:31:16;;;;;;;11.45;10.23;;;;;;;;;;787125;74;26771;-71
2022/04/17 01:32:21;;;;;;;10.40;9.13;;;;;;;;;;786339;75;26299;-72
2022/04/17 01:33:24;;;;;;;11.28;10.00;;;;;;;;;;787023;75;26243;-72
2022/04/17 01:37:56;;;;;;;11.53;10.32;;;;;;;;;;793809;75;26215;-71
2022/04/17 01:42:40;;;;;;;10.20;9.20;;;;;;;;;;761520;78;26204;-71
2022/04/17 01:43:45;;;;;;;10.90;9.80;;;;;;;;;;761453;78;26751;-72
2022/04/17 01:44:51;;;;;;;11.05;9.25;;;;;;;;;;761471;78;26263;-72
2022/04/17 01:45:55;;;;;;;10.13;9.13;;;;;;;;;;761481;78;26785;-71
2022/04/17 01:46:59;;;;;;;10.25;9.25;;;;;;;;;;761418;78;26323;-71
2022/04/17 01:48:01;;;;;;;10.30;9.30;;;;;;;;;;761261;78;26263;-72
2022/04/17 01:52:52;;;;;;;10.60;9.48;;;;;;;;;;788011;75;26206;-71
2022/04/17 01:53:56;;;;;;;11.12;9.65;;;;;;;;;;788651;75;26279;-73
2022/04/17 01:54:59;;;;;;;10.68;9.58;;;;;;;;;;787809;75;26298;-72
2022/04/17 01:56:02;;;;;;;10.70;9.68;;;;;;;;;;787824;75;26294;-71
2022/04/17 01:57:06;;;;;;;11.05;10.03;;;;;;;;;;787929;75;26212;-74
2022/04/17 01:58:09;;;;;;;10.70;9.70;;;;;;;;;;788078;75;26218;-72
2022/04/17 02:02:26;;;;;;;10.78;9.65;;;;;;;;;;822202;72;26201;-71
2022/04/17 02:03:29;;;;;;;10.28;9.13;;;;;;;;;;822164;72;26234;-71
2022/04/17 02:04:35;;;;;;;10.45;9.45;;;;;;;;;;822251;72;26285;-72
2022/04/17 02:05:36;;;;;;;11.08;9.95;;;;;;;;;;821862;72;26718;-72
2022/04/17 02:06:41;;;;;;;11.43;9.98;;;;;;;;;;822198;72;26219;-71
2022/04/17 02:07:44;;;;;;;11.15;10.03;;;;;;;;;;823163;72;26277;-71
2022/04/17 02:10:55;;;;;;;9.85;8.85;;;;;;;;;;792969;75;26745;-71
2022/04/17 02:11:58;;;;;;;10.80;9.70;;;;;;;;;;792853;75;26669;-72
2022/04/17 02:13:02;;;;;;;11.15;9.78;;;;;;;;;;792850;75;26229;-72
2022/04/17 02:14:06;;;;;;;11.30;10.20;;;;;;;;;;792924;75;26280;-72
2022/04/17 02:15:09;;;;;;;10.65;9.65;;;;;;;;;;793537;75;26230;-71
2022/04/17 02:16:14;;;;;;;10.95;9.85;;;;;;;;;;793696;75;26218;-72
2022/04/17 02:17:17;;;;;;;10.08;9.15;;;;;;;;;;792933;75;26287;-71
2022/04/17 02:34:08;;;;;;;11.33;10.23;;;;;;;;;;775766;76;26627;-73
2022/04/17 02:35:12;;;;;;;11.40;10.20;;;;;;;;;;776490;76;26241;-72
2022/04/17 02:36:15;;;;;;;11.80;10.63;;;;;;;;;;776117;76;26257;-71
2022/04/17 02:37:20;;;;;;;11.15;10.08;;;;;;;;;;776264;76;26387;-72
2022/04/17 02:40:32;;;;;;;12.18;10.98;;;;;;;;;;776999;76;26226;-73
2022/04/17 02:41:36;;;;;;;12.70;11.40;;;;;;;;;;776613;76;26241;-72
2022/04/17 02:42:38;;;;;;;11.68;10.48;;;;;;;;;;776622;76;26778;-71
2022/04/17 02:43:41;;;;;;;12.55;11.25;;;;;;;;;;776736;76;26240;-74
2022/04/17 02:44:44;;;;;;;13.62;10.75;;;;;;;;;;776539;76;26261;-72
2022/04/17 02:45:47;;;;;;;12.43;11.25;;;;;;;;;;757324;78;26245;-72
2022/04/17 02:48:11;;;;;;;12.10;10.70;;;;;;;;;;776257;76;26245;-72
2022/04/17 02:50:56;;;;;;;12.43;11.12;;;;;;;;;;739172;80;26269;-71
2022/04/17 02:51:59;;;;;;;11.30;10.20;;;;;;;;;;739305;80;26361;-71
2022/04/17 02:53:01;;;;;;;12.93;11.57;;;;;;;;;;739263;80;26324;-72
2022/04/17 02:54:04;;;;;;;12.25;11.05;;;;;;;;;;739266;80;26261;-71
2022/04/17 02:55:07;;;;;;;12.15;10.95;;;;;;;;;;739236;80;26788;-71
2022/04/17 02:56:11;;;;;;;12.45;11.20;;;;;;;;;;739184;80;26276;-73
2022/04/17 02:57:15;;;;;;;14.80;11.80;;;;;;;;;;739275;80;26253;-72
2022/04/17 03:05:48;;;;;;;11.65;10.55;;;;;;;;;;751949;79;26341;-71
2022/04/17 03:06:50;;;;;;;11.03;9.93;;;;;;;;;;751925;79;26734;-72
2022/04/17 03:07:53;;;;;;;11.33;10.23;;;;;;;;;;751957;79;26726;-71
2022/04/17 03:14:10;;;;;;;10.80;9.75;;;;;;;;;;752797;79;26160;-73
2022/04/17 03:15:13;;;;;;;10.80;9.70;;;;;;;;;;752867;78;26318;-71
2022/04/17 03:16:16;;;;;;;10.53;9.40;;;;;;;;;;752916;78;26726;-70
2022/04/17 03:17:19;;;;;;;10.82;9.73;;;;;;;;;;752861;79;26247;-70
2022/04/17 03:22:04;;;;;;;10.88;9.78;;;;;;;;;;752026;79;26186;-72
2022/04/17 03:23:07;;;;;;;10.10;9.08;;;;;;;;;;752004;79;26258;-72
2022/04/17 03:24:12;;;;;;;10.85;8.90;;;;;;;;;;752015;79;26262;-71
2022/04/17 03:25:14;;;;;;;10.00;9.00;;;;;;;;;;751968;79;26309;-71
2022/04/17 03:26:17;;;;;;;10.32;9.23;;;;;;;;;;751940;79;26684;-71
2022/04/17 03:27:20;;;;;;;9.83;8.83;;;;;;;;;;752103;79;26259;-72
2022/04/17 03:30:20;;;;;;;10.10;9.03;;;;;;;;;;752342;79;26228;-71
2022/04/17 03:31:23;;;;;;;10.40;9.40;;;;;;;;;;752245;79;26356;-72
2022/04/17 03:32:26;;;;;;;10.72;9.15;;;;;;;;;;752054;79;26257;-71
2022/04/17 03:33:28;;;;;;;10.58;9.58;;;;;;;;;;752024;79;26255;-72
2022/04/17 03:34:31;;;;;;;11.33;10.10;;;;;;;;;;751983;79;26326;-71
2022/04/17 03:35:34;;;;;;;10.43;9.33;;;;;;;;;;752170;79;26267;-71
2022/04/17 03:36:39;;;;;;;10.60;9.50;;;;;;;;;;739368;80;26650;-73
2022/04/17 03:37:42;;;;;;;13.90;10.13;;;;;;;;;;740152;80;26229;-73
2022/04/17 03:42:17;;;;;;;9.55;8.60;;;;;;;;;;813887;73;26125;-72
2022/04/17 03:43:23;;;;;;;9.55;8.60;;;;;;;;;;813776;73;26313;-73
2022/04/17 03:44:25;;;;;;;11.10;9.50;;;;;;;;;;813525;73;26735;-72
2022/04/17 03:45:28;;;;;;;10.35;9.35;;;;;;;;;;814249;73;26210;-72
2022/04/17 03:46:33;;;;;;;11.05;9.95;;;;;;;;;;813926;73;26222;-72
2022/04/17 03:47:36;;;;;;;9.73;8.83;;;;;;;;;;813263;73;26283;-74
2022/04/17 03:52:19;;;;;;;12.50;9.45;;;;;;;;;;765715;77;26238;-72
2022/04/17 03:53:22;;;;;;;11.55;10.45;;;;;;;;;;765645;77;26704;-72
2022/04/17 03:54:26;;;;;;;11.15;10.05;;;;;;;;;;765567;77;26232;-72
2022/04/17 03:55:30;;;;;;;11.12;10.03;;;;;;;;;;765590;77;26702;-71
2022/04/17 04:03:50;;;;;;;10.68;9.68;;;;;;;;;;772851;77;26589;-71
2022/04/17 04:04:55;;;;;;;11.08;9.98;;;;;;;;;;772763;77;26232;-71
2022/04/17 04:05:58;;;;;;;12.95;10.60;;;;;;;;;;772875;77;26317;-71
2022/04/17 04:07:03;;;;;;;12.43;10.23;;;;;;;;;;772903;77;26241;-71
2022/04/17 04:10:21;;;;;;;10.23;9.30;;;;;;;;;;773590;77;26252;-72
2022/04/17 04:11:24;;;;;;;10.90;9.80;;;;;;;;;;772362;77;26257;-72
2022/04/17 04:12:28;;;;;;;11.57;10.48;;;;;;;;;;772319;77;26255;-72
2022/04/17 04:13:32;;;;;;;12.43;11.15;;;;;;;;;;772138;77;26252;-72
2022/04/17 04:14:35;;;;;;;11.75;10.65;;;;;;;;;;772049;77;26302;-71
2022/04/17 04:15:40;;;;;;;12.33;10.45;;;;;;;;;;772128;77;26326;-71
2022/04/17 04:16:42;;;;;;;11.25;10.05;;;;;;;;;;771937;77;26252;-72
2022/04/17 04:20:02;;;;;;;10.80;9.73;;;;;;;;;;753728;78;26302;-73
2022/04/17 04:21:05;;;;;;;11.80;10.60;;;;;;;;;;768055;77;26312;-72
2022/04/17 04:22:08;;;;;;;11.55;10.35;;;;;;;;;;767829;77;26258;-71
2022/04/17 04:23:11;;;;;;;10.13;9.23;;;;;;;;;;767813;77;26730;-72
2022/04/17 04:24:15;;;;;;;10.23;9.18;;;;;;;;;;768826;77;26320;-72
2022/04/17 04:25:18;;;;;;;11.08;9.98;;;;;;;;;;768706;77;26322;-72
2022/04/17 04:26:21;;;;;;;11.30;9.98;;;;;;;;;;767993;77;26770;-72
2022/04/17 04:30:43;;;;;;;10.58;9.55;;;;;;;;;;798055;74;26257;-73
2022/04/17 04:31:48;;;;;;;12.58;10.98;;;;;;;;;;781511;76;26244;-72
2022/04/17 04:32:53;;;;;;;10.53;9.53;;;;;;;;;;783621;75;26291;-71
2022/04/17 04:33:56;;;;;;;10.15;9.15;;;;;;;;;;783095;75;26250;-71
2022/04/17 04:35:05;;;;;;;10.98;9.83;;;;;;;;;;780798;76;26249;-73
2022/04/17 04:36:11;;;;;;;12.50;10.15;;;;;;;;;;783079;76;26293;-72
2022/04/17 04:37:12;;;;;;;9.78;8.88;;;;;;;;;;780521;75;26260;-71
2022/04/17 04:42:29;;;;;;;12.75;10.58;;;;;;;;;;797309;74;26174;-72
2022/04/17 04:43:32;;;;;;;12.47;11.18;;;;;;;;;;797223;74;26290;-72
2022/04/17 04:50:14;;;;;;;10.58;9.48;;;;;;;;;;784111;76;26159;-75
2022/04/17 04:51:17;;;;;;;10.95;9.83;;;;;;;;;;804553;73;26226;-73
2022/04/17 04:52:21;;;;;;;11.65;10.45;;;;;;;;;;803878;74;26643;-73
2022/04/17 04:53:24;;;;;;;11.08;9.98;;;;;;;;;;803855;74;24269;-73
2022/04/17 04:54:31;;;;;;;11.73;10.03;;;;;;;;;;803897;74;26660;-74
2022/04/17 04:55:34;;;;;;;10.82;9.83;;;;;;;;;;803869;74;26281;-72
2022/04/17 04:56:38;;;;;;;11.08;9.98;;;;;;;;;;803876;74;26696;-72
2022/04/17 05:01:12;;;;;;;11.25;10.15;;;;;;;;;;789259;75;26234;-75
2022/04/17 05:02:15;;;;;;;11.15;9.95;;;;;;;;;;789235;75;26273;-73
2022/04/17 05:03:19;;;;;;;11.75;10.55;;;;;;;;;;789203;75;26664;-73
2022/04/17 05:04:23;;;;;;;10.98;9.88;;;;;;;;;;774412;76;26748;-74
2022/04/17 05:05:26;;;;;;;11.10;9.90;;;;;;;;;;767608;75;26817;-74
2022/04/17 05:06:29;;;;;;;10.48;9.50;;;;;;;;;;778222;76;26242;-74
2022/04/17 05:11:14;;;;;;;12.90;11.33;;;;;;;;;;755092;78;26640;-73
2022/04/17 05:12:22;;;;;;;16.80;14.40;;;;;;;;;;754395;78;26316;-72
2022/04/17 05:13:27;;;;;;;17.67;14.23;;;;;;;;;;763381;77;26263;-76
2022/04/17 05:14:31;;;;;;;14.53;12.98;;;;;;;;;;763458;77;26273;-74
2022/04/17 05:15:38;;;;;;;13.10;11.70;;;;;;;;;;763336;77;26264;-73
2022/04/17 05:16:44;;;;;;;11.45;10.25;;;;;;;;;;768170;77;26329;-73
2022/04/17 05:19:35;;;;;;;9.70;8.70;;;;;;;;;;756065;78;26261;-73
2022/04/17 05:20:33;;;;;;;9.68;8.78;;;;;;;;;;756666;76;26733;-72
2022/04/17 05:21:36;;;;;;;10.70;9.63;;;;;;;;;;755317;78;26340;-73
2022/04/17 05:22:40;;;;;;;9.48;8.58;;;;;;;;;;756481;78;26300;-73
2022/04/17 05:23:45;;;;;;;9.58;8.68;;;;;;;;;;755851;78;26269;-73
2022/04/17 05:24:48;;;;;;;10.00;8.63;;;;;;;;;;756016;78;26264;-72
2022/04/17 05:25:52;;;;;;;9.43;8.53;;;;;;;;;;755356;78;26327;-72
2022/04/17 05:26:56;;;;;;;10.58;9.40;;;;;;;;;;755435;78;26735;-71
2022/04/17 05:29:41;;;;;;;10.95;8.93;;;;;;;;;;765596;77;26328;-71
2022/04/17 05:30:46;;;;;;;10.53;9.48;;;;;;;;;;767841;77;26747;-71
2022/04/17 05:35:43;;;;;;;11.20;10.10;;;;;;;;;;755308;78;26760;-73
2022/04/17 05:36:47;;;;;;;11.70;10.50;;;;;;;;;;755238;78;26692;-71
2022/04/17 05:41:33;;;;;;;11.20;10.10;;;;;;;;;;755873;78;26280;-71
2022/04/17 05:42:37;;;;;;;11.10;10.00;;;;;;;;;;755871;78;26337;-72
2022/04/17 05:43:40;;;;;;;11.68;10.53;;;;;;;;;;755717;78;26327;-75
2022/04/17 05:44:44;;;;;;;10.28;9.03;;;;;;;;;;755238;78;26272;-76
2022/04/17 05:45:48;;;;;;;10.70;9.70;;;;;;;;;;755196;78;26363;-73
2022/04/17 05:46:52;;;;;;;10.88;9.78;;;;;;;;;;755260;78;26705;-73
2022/04/17 05:49:52;;;;;;;10.03;9.08;;;;;;;;;;775857;76;26177;-73
2022/04/17 05:50:55;;;;;;;11.75;10.60;;;;;;;;;;775775;76;26788;-72
2022/04/17 05:51:59;;;;;;;11.85;10.63;;;;;;;;;;775687;76;26311;-73
2022/04/17 05:53:02;;;;;;;12.93;11.57;;;;;;;;;;775752;76;26243;-73
2022/04/17 05:54:07;;;;;;;14.33;12.73;;;;;;;;;;775694;76;26710;-73
2022/04/17 05:55:11;;;;;;;13.55;11.97;;;;;;;;;;775863;76;26236;-73
2022/04/17 05:56:16;;;;;;;15.15;11.45;;;;;;;;;;775711;76;26331;-73
2022/04/17 05:59:38;;;;;;;12.18;10.35;;;;;;;;;;776083;76;26146;-74
2022/04/17 06:00:43;;;;;;;11.45;10.35;;;;;;;;;;766776;77;26256;-75
2022/04/17 06:01:47;;;;;;;10.35;9.35;;;;;;;;;;766957;77;26241;-73
2022/04/17 06:02:50;;;;;;;10.63;9.53;;;;;;;;;;766823;77;26690;-72
2022/04/17 06:03:53;;;;;;;10.15;9.18;;;;;;;;;;766858;77;26260;-72
2022/04/17 06:04:56;;;;;;;11.75;9.65;;;;;;;;;;766662;77;26249;-72
2022/04/17 06:06:02;;;;;;;11.08;9.80;;;;;;;;;;766698;77;26242;-72
2022/04/17 06:09:33;;;;;;;10.80;9.63;;;;;;;;;;767060;77;26599;-72
2022/04/17 06:10:37;;;;;;;12.13;10.15;;;;;;;;;;758781;78;26334;-72
2022/04/17 06:11:43;;;;;;;10.80;9.70;;;;;;;;;;758368;78;26752;-73
2022/04/17 06:12:46;;;;;;;10.68;9.65;;;;;;;;;;745305;79;26276;-74
2022/04/17 06:13:51;;;;;;;10.82;9.65;;;;;;;;;;757564;78;26715;-73
2022/04/17 06:14:54;;;;;;;12.47;10.15;;;;;;;;;;757677;78;26273;-73
2022/04/17 06:15:58;;;;;;;13.38;11.18;;;;;;;;;;757598;78;26268;-72
2022/04/17 06:20:30;;;;;;;9.90;9.00;;;;;;;;;;775542;76;26194;-72
2022/04/17 06:26:48;;;;;;;10.82;9.73;;;;;;;;;;792546;75;26166;-72
2022/04/17 06:29:44;;;;;;;11.53;10.35;;;;;;;;;;760107;78;26255;-74
2022/04/17 06:30:46;;;;;;;11.73;10.53;;;;;;;;;;759881;78;26328;-71
2022/04/17 06:31:49;;;;;;;12.13;10.93;;;;;;;;;;759890;78;26262;-72
2022/04/17 06:32:53;;;;;;;12.05;10.85;;;;;;;;;;759875;78;26299;-70
2022/04/17 06:33:56;;;;;;;10.78;9.70;;;;;;;;;;759877;78;26247;-73
2022/04/17 06:35:00;;;;;;;12.20;10.98;;;;;;;;;;759253;78;26702;-72
2022/04/17 06:36:03;;;;;;;11.25;10.05;;;;;;;;;;759590;78;26730;-71
2022/04/17 06:40:36;;;;;;;12.00;10.55;;;;;;;;;;759614;78;26251;-72
2022/04/17 06:41:40;;;;;;;12.33;10.88;;;;;;;;;;759593;78;26751;-72
2022/04/17 06:42:44;;;;;;;11.43;10.23;;;;;;;;;;759651;78;26330;-71
2022/04/17 06:43:47;;;;;;;10.88;9.78;;;;;;;;;;759561;78;26271;-72
2022/04/17 06:44:49;;;;;;;10.10;9.10;;;;;;;;;;759565;78;26260;-71
2022/04/17 06:45:56;;;;;;;8.30;7.50;;;;;;;;;;759538;78;26249;-72
2022/04/17 06:52:13;;;;;;;9.88;7.90;;;;;;;;;;747214;79;26214;-74
2022/04/17 06:53:17;;;;;;;8.80;8.00;;;;;;;;;;747156;79;26269;-74
2022/04/17 06:54:20;;;;;;;10.70;9.60;;;;;;;;;;734487;81;26292;-75
2022/04/17 06:55:23;;;;;;;10.75;9.75;;;;;;;;;;731487;81;26733;-73
2022/04/17 06:56:26;;;;;;;10.70;9.70;;;;;;;;;;747144;79;26260;-75
2022/04/17 06:59:22;;;;;;;10.80;9.80;;;;;;;;;;781221;76;26236;-73
2022/04/17 07:00:26;;;;;;;10.38;9.38;;;;;;;;;;778841;75;26727;-76
2022/04/17 07:03:45;;;;;;;9.40;8.45;;;;;;;;;;781307;76;26261;-73
2022/04/17 07:04:49;;;;;;;9.75;8.85;;;;;;;;;;738541;80;26274;-76
2022/04/17 07:05:55;;;;;;;9.85;8.85;;;;;;;;;;738565;80;26392;-77
2022/04/17 07:10:42;;;;;;;12.75;11.45;;;;;;;;;;762716;78;26178;-78
2022/04/17 07:11:46;;;;;;;13.72;12.43;;;;;;;;;;755396;78;26719;-77
2022/04/17 07:19:53;;;;;;;13.70;12.30;;;;;;;;;;749578;79;26215;-76
2022/04/17 07:21:01;;;;;;;12.50;11.20;;;;;;;;;;749419;79;26409;-76
2022/04/17 07:22:04;;;;;;;12.15;10.95;;;;;;;;;;749396;79;26263;-75
2022/04/17 07:23:08;;;;;;;11.05;10.05;;;;;;;;;;749363;79;26319;-75
2022/04/17 07:24:15;;;;;;;11.57;10.45;;;;;;;;;;749470;79;26266;-77
2022/04/17 07:25:19;;;;;;;11.03;9.95;;;;;;;;;;749434;79;26313;-74
2022/04/17 07:26:22;;;;;;;10.82;9.78;;;;;;;;;;749389;79;26278;-77
2022/04/17 07:29:23;;;;;;;11.10;10.00;;;;;;;;;;761970;78;26217;-76
2022/04/17 07:30:30;;;;;;;11.73;10.55;;;;;;;;;;773160;76;26698;-76
2022/04/17 07:31:37;;;;;;;12.93;11.53;;;;;;;;;;750775;79;26272;-76
2022/04/17 07:32:51;;;;;;;12.30;11.00;;;;;;;;;;770239;77;26683;-76
2022/04/17 07:33:54;;;;;;;12.30;11.10;;;;;;;;;;773778;76;26282;-75
2022/04/17 07:34:57;;;;;;;13.13;11.22;;;;;;;;;;773738;76;26236;-76
2022/04/17 07:36:01;;;;;;;11.60;10.40;;;;;;;;;;773565;77;26732;-72
2022/04/17 07:39:22;;;;;;;12.18;10.88;;;;;;;;;;773685;77;26160;-71
2022/04/17 07:40:26;;;;;;;11.90;10.70;;;;;;;;;;773169;77;26272;-71
2022/04/17 07:41:34;;;;;;;11.85;10.63;;;;;;;;;;773285;77;26351;-72
2022/04/17 07:42:39;;;;;;;11.73;10.53;;;;;;;;;;773170;76;26240;-72
2022/04/17 07:43:42;;;;;;;10.75;9.65;;;;;;;;;;773204;76;26229;-72
2022/04/17 07:44:48;;;;;;;10.38;9.38;;;;;;;;;;750273;79;26799;-72
2022/04/17 07:45:58;;;;;;;9.48;8.55;;;;;;;;;;773256;77;26239;-73
2022/04/17 07:47:03;;;;;;;9.78;8.78;;;;;;;;;;773250;77;26233;-72
2022/04/17 07:48:09;;;;;;;9.10;8.28;;;;;;;;;;773687;76;26253;-72
2022/04/17 07:49:12;;;;;;;10.08;9.08;;;;;;;;;;773232;77;26307;-74
2022/04/17 07:50:17;;;;;;;9.68;8.65;;;;;;;;;;750122;79;26260;-74
2022/04/17 07:51:20;;;;;;;10.32;9.33;;;;;;;;;;773153;77;26800;-73
2022/04/17 07:52:25;;;;;;;10.10;9.15;;;;;;;;;;750745;79;26266;-74
2022/04/17 07:53:28;;;;;;;13.00;11.05;;;;;;;;;;773079;77;26686;-73
2022/04/17 07:54:32;;;;;;;12.35;11.03;;;;;;;;;;773151;77;26675;-72
2022/04/17 07:55:38;;;;;;;11.25;9.75;;;;;;;;;;773196;76;26241;-72
2022/04/17 08:00:59;;;;;;;8.93;7.55;;;;;;;;;;760339;78;26720;-71
2022/04/17 08:01:48;;;;;;;8.88;8.08;;;;;;;;;;757076;78;26716;-73
2022/04/17 08:03:06;;;;;;;8.30;7.42;;;;;;;;;;759206;77;26246;-73
2022/04/17 08:03:59;;;;;;;8.80;7.75;;;;;;;;;;758278;77;26275;-71
2022/04/17 08:10:36;;;;;;;9.60;8.63;;;;;;;;;;747746;79;26632;-71
2022/04/17 08:11:38;;;;;;;9.20;8.30;;;;;;;;;;747728;79;26683;-72
2022/04/17 08:12:41;;;;;;;8.80;8.00;;;;;;;;;;747705;79;26253;-71
2022/04/17 08:13:46;;;;;;;8.83;7.92;;;;;;;;;;747735;79;26748;-72
2022/04/17 08:14:50;;;;;;;9.53;8.53;;;;;;;;;;747752;79;26269;-73
2022/04/17 08:15:53;;;;;;;9.35;8.55;;;;;;;;;;747761;79;26326;-73
2022/04/17 08:17:01;;;;;;;10.32;8.98;;;;;;;;;;747696;79;26335;-72
2022/04/17 08:18:07;;;;;;;9.35;8.45;;;;;;;;;;747826;79;26257;-73
2022/04/17 08:19:11;;;;;;;9.85;8.85;;;;;;;;;;748032;79;26316;-72
2022/04/17 08:20:19;;;;;;;11.10;9.13;;;;;;;;;;748738;78;26253;-71
2022/04/17 08:21:24;;;;;;;9.30;8.40;;;;;;;;;;745709;79;26269;-71
2022/04/17 08:22:31;;;;;;;9.83;8.83;;;;;;;;;;748498;79;26254;-73
2022/04/17 08:23:37;;;;;;;11.60;10.40;;;;;;;;;;747814;79;26266;-74
2022/04/17 08:24:40;;;;;;;12.05;10.82;;;;;;;;;;747789;79;26317;-76
2022/04/17 08:25:43;;;;;;;9.65;8.63;;;;;;;;;;747855;79;26282;-75
2022/04/17 08:28:50;;;;;;;7.17;6.58;;;;;;;;;;727172;81;26206;-73
2022/04/17 08:29:53;;;;;;;7.87;7.08;;;;;;;;;;747874;79;26269;-75
2022/04/17 08:30:56;;;;;;;7.45;6.70;;;;;;;;;;738531;80;26274;-76
2022/04/17 08:32:00;;;;;;;7.45;6.80;;;;;;;;;;760467;78;26261;-75
2022/04/17 08:33:06;;;;;;;8.48;7.67;;;;;;;;;;760321;78;26782;-76
2022/04/17 08:34:10;;;;;;;8.53;7.72;;;;;;;;;;756434;78;26254;-75
2022/04/17 08:35:16;;;;;;;8.25;7.45;;;;;;;;;;760434;78;26255;-74
2022/04/17 08:38:35;;;;;;;7.05;6.22;;;;;;;;;;760533;78;26636;-73
2022/04/17 08:39:40;;;;;;;6.40;5.90;;;;;;;;;;761342;78;26304;-73
2022/04/17 08:40:46;;;;;;;6.92;6.33;;;;;;;;;;761417;78;26703;-76
2022/04/17 08:41:54;;;;;;;7.33;6.62;;;;;;;;;;752501;78;26260;-74
2022/04/17 08:42:59;;;;;;;6.78;6.17;;;;;;;;;;758939;77;26226;-73
2022/04/17 08:44:05;;;;;;;7.60;6.80;;;;;;;;;;761590;78;26246;-75
2022/04/17 08:45:10;;;;;;;7.58;6.70;;;;;;;;;;761424;78;26243;-75
2022/04/17 08:49:42;;;;;;;6.25;5.65;;;;;;;;;;748757;79;26273;-72
2022/04/17 08:50:47;;;;;;;6.12;5.53;;;;;;;;;;734940;81;26314;-75
2022/04/17 08:51:50;;;;;;;5.78;5.28;;;;;;;;;;735104;80;26319;-74
2022/04/17 08:52:58;;;;;;;6.58;5.90;;;;;;;;;;723611;82;26337;-79
2022/04/17 08:54:04;;;;;;;5.92;5.35;;;;;;;;;;734879;81;26319;-76
2022/04/17 09:04:15;;;;;;;6.37;5.70;;;;;;;;;;720274;82;26244;-75
2022/04/17 09:05:19;;;;;;;5.90;5.40;;;;;;;;;;721931;82;26280;-76
2022/04/17 09:10:03;;;;;;;5.70;5.20;;;;;;;;;;749648;79;26217;-75
2022/04/17 09:11:09;;;;;;;5.50;5.10;;;;;;;;;;766079;77;26263;-74
2022/04/17 09:12:16;;;;;;;5.85;5.35;;;;;;;;;;765116;77;26252;-73
2022/04/17 09:13:32;;;;;;;6.10;5.50;;;;;;;;;;763384;77;26263;-75
2022/04/17 09:14:38;;;;;;;6.10;5.50;;;;;;;;;;764485;77;26251;-75
2022/04/17 09:15:45;;;;;;;6.05;5.55;;;;;;;;;;764318;77;26763;-75
2022/04/17 09:19:59;;;;;;;7.10;6.50;;;;;;;;;;757984;78;26178;-74
2022/04/17 09:21:03;;;;;;;5.80;5.30;;;;;;;;;;758038;78;26705;-72
2022/04/17 09:22:07;;;;;;;6.10;5.60;;;;;;;;;;758003;78;26695;-76
2022/04/17 09:23:12;;;;;;;7.58;6.87;;;;;;;;;;758090;78;26321;-73
2022/04/17 09:24:16;;;;;;;7.08;6.40;;;;;;;;;;758048;78;26253;-76
2022/04/17 09:25:26;;;;;;;6.40;5.85;;;;;;;;;;757965;78;26263;-75
2022/04/17 09:26:58;;;;;;;6.60;6.00;;;;;;;;;;758183;78;26311;-76
2022/04/17 09:28:03;;;;;;;5.80;5.30;;;;;;;;;;745647;79;26263;-74
2022/04/17 09:29:20;;;;;;;7.03;6.40;;;;;;;;;;745500;79;26271;-73
2022/04/17 09:30:26;;;;;;;6.75;6.15;;;;;;;;;;732158;81;26307;-73
2022/04/17 09:31:29;;;;;;;6.80;6.20;;;;;;;;;;728910;81;26283;-72
2022/04/17 09:32:32;;;;;;;6.47;5.87;;;;;;;;;;745619;79;26272;-73
2022/04/17 09:33:38;;;;;;;7.17;6.47;;;;;;;;;;745647;79;26268;-73
2022/04/17 09:34:56;;;;;;;6.70;6.10;;;;;;;;;;745578;79;26356;-71
2022/04/17 09:35:56;;;;;;;6.35;5.80;;;;;;;;;;730857;81;26386;-73
2022/04/17 09:38:58;;;;;;;7.30;5.87;;;;;;;;;;771281;76;26208;-72
2022/04/17 09:40:08;;;;;;;6.50;5.95;;;;;;;;;;768591;77;26313;-73
2022/04/17 09:41:13;;;;;;;6.72;6.12;;;;;;;;;;770626;77;26282;-72
2022/04/17 09:42:21;;;;;;;5.72;5.28;;;;;;;;;;770487;77;26284;-72
2022/04/17 09:43:24;;;;;;;6.03;5.53;;;;;;;;;;770646;77;26809;-74
2022/04/17 09:44:36;;;;;;;6.30;5.70;;;;;;;;;;770567;77;26226;-74
2022/04/17 09:54:20;;;;;;;6.35;5.78;;;;;;;;;;808944;73;26267;-75
2022/04/17 09:55:28;;;;;;;6.00;5.40;;;;;;;;;;809276;73;26691;-73
2022/04/17 10:00:32;;;;;;;6.62;6.05;;;;;;;;;;775827;75;26242;-73
2022/04/17 10:01:38;;;;;;;7.55;6.85;;;;;;;;;;775252;75;26238;-72
2022/04/17 10:02:42;;;;;;;7.20;6.50;;;;;;;;;;789078;75;26227;-73
2022/04/17 10:03:48;;;;;;;7.47;6.80;;;;;;;;;;789029;75;26328;-73
2022/04/17 10:04:51;;;;;;;7.35;6.65;;;;;;;;;;789012;75;26297;-72
2022/04/17 10:09:24;;;;;;;6.25;5.75;;;;;;;;;;749447;79;26262;-71
2022/04/17 10:10:28;;;;;;;5.60;5.10;;;;;;;;;;762494;78;26700;-72
2022/04/17 10:11:34;;;;;;;7.33;6.62;;;;;;;;;;762576;78;26720;-71
2022/04/17 10:12:43;;;;;;;7.12;6.42;;;;;;;;;;760748;78;26251;-73
2022/04/17 10:13:48;;;;;;;6.65;5.70;;;;;;;;;;762517;78;26314;-73
2022/04/17 10:14:55;;;;;;;7.85;5.92;;;;;;;;;;762567;78;26293;-73
2022/04/17 10:18:01;;;;;;;5.35;4.85;;;;;;;;;;762829;78;26185;-74
2022/04/17 10:19:06;;;;;;;7.03;5.28;;;;;;;;;;775109;76;26304;-74
2022/04/17 10:20:12;;;;;;;5.97;5.47;;;;;;;;;;761775;78;26310;-74
2022/04/17 10:21:16;;;;;;;5.50;5.10;;;;;;;;;;761870;78;26761;-73
2022/04/17 10:22:20;;;;;;;6.35;5.75;;;;;;;;;;775498;76;26230;-73
2022/04/17 10:23:24;;;;;;;5.55;5.05;;;;;;;;;;775472;76;26686;-74
2022/04/17 10:24:29;;;;;;;6.45;5.75;;;;;;;;;;775594;76;26302;-73
2022/04/17 10:27:31;;;;;;;5.85;5.22;;;;;;;;;;764618;77;26210;-73
2022/04/17 10:28:35;;;;;;;5.28;4.80;;;;;;;;;;752033;78;26260;-74
2022/04/17 10:29:47;;;;;;;5.28;4.87;;;;;;;;;;736279;80;26398;-73
2022/04/17 10:30:59;;;;;;;4.95;4.55;;;;;;;;;;751200;77;26287;-75
2022/04/17 10:32:18;;;;;;;5.33;4.62;;;;;;;;;;771893;77;26377;-75
2022/04/17 10:33:26;;;;;;;5.35;4.25;;;;;;;;;;771605;77;26276;-73
2022/04/17 10:34:32;;;;;;;5.67;5.17;;;;;;;;;;772256;77;26349;-75
2022/04/17 10:41:08;;;;;;;7.45;6.75;;;;;;;;;;765341;77;26341;-73
2022/04/17 10:42:11;;;;;;;7.78;7.08;;;;;;;;;;765264;77;26373;-73
2022/04/17 10:43:16;;;;;;;8.63;7.72;;;;;;;;;;765224;77;26579;-74